Time;durP1;ratioP1;P1;durP2;ratioP2;P2;SDS_P1;SDS_P2;PMS_P1;PMS_P2;Temp;Humidity;BMP_temperature;BMP_pressure;BME280_temperature;BME280_humidity;BME280_pressure;Samples;Min_cycle;Max_cycle;Signal;HPM_P1;HPM_P2
2023/09/05 00:01:56;;;;;;;5.82;3.63;;;20.70;1.00;;;;;;5052090;28;20165;-74
2023/09/05 00:04:22;;;;;;;5.82;3.28;;;20.60;1.00;;;;;;5051807;28;20632;-73
2023/09/05 00:06:48;;;;;;;6.15;3.35;;;20.60;1.00;;;;;;5051773;28;20216;-73
2023/09/05 00:09:16;;;;;;;4.78;3.10;;;20.50;99.90;;;;;;5051709;28;20209;-74
2023/09/05 00:11:42;;;;;;;7.80;3.30;;;20.50;99.90;;;;;;5051708;28;20192;-74
2023/09/05 00:14:09;;;;;;;5.75;3.30;;;20.40;99.90;;;;;;5051558;28;20632;-74
2023/09/05 00:16:35;;;;;;;5.20;3.35;;;20.40;99.90;;;;;;5051419;28;20165;-74
2023/09/05 00:19:00;;;;;;;6.07;3.40;;;20.30;1.00;;;;;;5050236;28;20204;-73
2023/09/05 00:21:26;;;;;;;4.72;3.08;;;20.20;1.00;;;;;;5051813;28;20256;-74
2023/09/05 00:23:51;;;;;;;6.47;3.30;;;20.20;1.00;;;;;;5051531;28;20174;-75
2023/09/05 00:26:17;;;;;;;6.57;3.08;;;20.10;1.00;;;;;;5051480;28;20549;-74
2023/09/05 00:28:43;;;;;;;5.07;3.40;;;20.10;1.00;;;;;;5051341;28;20292;-74
2023/09/05 00:31:11;;;;;;;4.28;3.15;;;20.10;99.90;;;;;;5051344;28;20172;-74
2023/09/05 00:33:37;;;;;;;6.15;3.83;;;19.90;99.90;;;;;;5051367;28;20187;-74
2023/09/05 00:36:04;;;;;;;8.75;4.18;;;19.90;1.00;;;;;;5051407;28;20597;-74
2023/09/05 00:38:29;;;;;;;7.10;3.05;;;19.80;99.90;;;;;;5051420;28;20176;-74
2023/09/05 00:40:56;;;;;;;9.45;3.55;;;;;;;;;;5047523;28;20541;-74
2023/09/05 00:43:21;;;;;;;5.25;3.10;;;19.70;1.00;;;;;;5031018;28;20279;-74
2023/09/05 00:45:49;;;;;;;5.95;3.28;;;19.60;99.90;;;;;;5031098;28;20162;-74
2023/09/05 00:48:27;;;;;;;11.77;3.13;;;19.50;99.90;;;;;;5029707;28;20219;-74
2023/09/05 00:50:56;;;;;;;6.57;3.00;;;19.50;99.90;;;;;;5030014;28;20260;-73
2023/09/05 00:53:23;;;;;;;10.30;3.83;;;19.40;1.00;;;;;;5031037;28;20193;-73
2023/09/05 00:55:49;;;;;;;5.38;2.97;;;19.40;1.00;;;;;;5031041;28;20659;-74
2023/09/05 00:58:15;;;;;;;5.25;3.40;;;19.40;1.00;;;;;;5030999;28;20177;-74
2023/09/05 01:00:40;;;;;;;6.82;3.92;;;19.40;1.00;;;;;;5047378;28;20215;-73
2023/09/05 01:03:06;;;;;;;5.57;3.42;;;19.10;99.90;;;;;;5050593;28;20252;-74
2023/09/05 01:05:34;;;;;;;6.55;3.08;;;19.40;63.60;;;;;;5050882;28;20169;-74
2023/09/05 01:08:09;;;;;;;6.50;3.60;;;19.20;1.00;;;;;;5050907;28;20232;-74
2023/09/05 01:10:46;;;;;;;6.85;3.60;;;19.10;99.90;;;;;;5050847;28;20180;-73
2023/09/05 01:13:11;;;;;;;10.48;3.67;;;19.20;94.40;;;;;;5050783;28;20701;-73
2023/09/05 01:15:37;;;;;;;4.70;3.50;;;;;;;;;;5050671;28;20161;-73
2023/09/05 01:18:03;;;;;;;6.13;3.50;;;19.10;99.90;;;;;;5049297;28;20173;-73
2023/09/05 01:21:01;;;;;;;6.85;3.47;;;18.90;99.90;;;;;;5050774;28;20173;-73
2023/09/05 01:23:34;;;;;;;4.88;3.05;;;19.10;99.90;;;;;;5040166;28;20244;-73
2023/09/05 01:26:00;;;;;;;6.25;3.22;;;19.00;99.90;;;;;;5050703;28;20216;-73
2023/09/05 01:28:27;;;;;;;5.18;3.63;;;19.00;1.00;;;;;;5050499;28;20236;-73
2023/09/05 01:30:53;;;;;;;5.70;3.45;;;;;;;;;;5050543;28;20213;-73
2023/09/05 01:33:19;;;;;;;7.10;3.42;;;19.00;1.00;;;;;;5050457;28;20173;-73
2023/09/05 01:35:45;;;;;;;4.95;3.58;;;19.00;1.00;;;;;;5050519;28;20176;-73
2023/09/05 01:38:11;;;;;;;6.45;3.45;;;19.10;1.00;;;;;;5050495;28;20541;-73
2023/09/05 01:40:37;;;;;;;6.82;3.47;;;19.10;1.00;;;;;;5049430;28;20165;-73
2023/09/05 01:43:03;;;;;;;5.00;3.35;;;;;;;;;;5030227;28;20291;-73
2023/09/05 01:45:28;;;;;;;6.28;3.25;;;19.00;1.00;;;;;;5030401;28;20162;-74
2023/09/05 01:47:54;;;;;;;5.97;3.75;;;18.90;53.50;;;;;;5030570;28;20201;-73
2023/09/05 01:50:20;;;;;;;6.55;3.80;;;;;;;;;;5030428;28;20249;-72
2023/09/05 01:52:45;;;;;;;6.07;4.05;;;18.70;1.00;;;;;;5030416;28;20676;-73
2023/09/05 01:55:11;;;;;;;5.70;4.03;;;18.90;1.00;;;;;;5032573;28;20200;-73
2023/09/05 01:57:36;;;;;;;6.07;3.88;;;18.70;1.00;;;;;;5054053;28;20719;-73
2023/09/05 02:00:02;;;;;;;6.28;4.15;;;18.80;1.00;;;;;;5054124;28;20181;-73
2023/09/05 02:02:28;;;;;;;8.27;4.25;;;18.90;1.00;;;;;;5054110;28;20636;-72
2023/09/05 02:04:53;;;;;;;5.47;3.70;;;18.80;1.00;;;;;;5054041;28;20166;-73
2023/09/05 02:07:19;;;;;;;7.18;4.68;;;18.70;1.00;;;;;;5053927;28;20180;-73
2023/09/05 02:09:45;;;;;;;6.40;4.22;;;18.60;1.00;;;;;;5054178;28;20264;-73
2023/09/05 02:12:12;;;;;;;6.65;4.35;;;18.60;1.00;;;;;;5054069;28;20666;-73
2023/09/05 02:14:38;;;;;;;5.43;3.95;;;;;;;;;;5054097;28;20208;-73
2023/09/05 02:17:03;;;;;;;5.20;3.67;;;18.60;99.90;;;;;;5053608;28;20177;-73
2023/09/05 02:19:29;;;;;;;6.68;4.20;;;19.10;99.90;;;;;;5053704;28;20173;-73
2023/09/05 02:21:55;;;;;;;6.75;4.07;;;18.50;99.90;;;;;;5052497;28;20532;-73
2023/09/05 02:24:21;;;;;;;12.48;4.50;;;18.50;1.00;;;;;;5053768;28;20177;-73
2023/09/05 02:26:46;;;;;;;6.00;4.47;;;18.50;99.90;;;;;;5053847;28;20755;-73
2023/09/05 02:29:12;;;;;;;8.00;4.45;;;18.40;99.90;;;;;;5053481;28;20216;-73
2023/09/05 02:31:38;;;;;;;8.15;4.50;;;18.40;99.90;;;;;;5053655;28;20170;-73
2023/09/05 02:34:04;;;;;;;8.30;4.50;;;;;;;;;;5052232;28;20532;-73
2023/09/05 02:36:30;;;;;;;9.75;5.18;;;18.40;99.90;;;;;;5053433;28;20177;-72
2023/09/05 02:38:58;;;;;;;7.25;4.72;;;18.40;99.90;;;;;;5053469;28;20165;-72
2023/09/05 02:41:23;;;;;;;8.00;5.05;;;18.40;99.90;;;;;;5040925;28;20212;-72
2023/09/05 02:43:50;;;;;;;10.57;5.07;;;18.30;99.90;;;;;;5053301;28;20229;-73
2023/09/05 02:46:15;;;;;;;7.95;5.30;;;18.40;99.90;;;;;;5053272;28;20200;-73
2023/09/05 02:48:42;;;;;;;7.40;5.32;;;18.30;99.90;;;;;;5053029;28;20624;-73
2023/09/05 02:51:10;;;;;;;11.10;5.22;;;18.30;99.90;;;;;;5051580;28;20193;-72
2023/09/05 02:53:36;;;;;;;10.27;5.10;;;18.30;99.90;;;;;;5053290;28;20199;-73
2023/09/05 02:56:02;;;;;;;6.43;4.45;;;18.20;1.00;;;;;;5051378;28;20260;-73
2023/09/05 02:58:28;;;;;;;8.20;4.65;;;18.20;1.00;;;;;;5051661;28;20275;-72
2023/09/05 03:01:04;;;;;;;7.25;4.80;;;18.20;1.00;;;;;;5037677;28;20269;-73
2023/09/05 03:03:30;;;;;;;8.77;5.25;;;18.20;1.00;;;;;;5033192;28;20216;-73
2023/09/05 03:05:57;;;;;;;14.90;5.90;;;18.20;1.00;;;;;;5045803;28;20177;-73
2023/09/05 03:08:23;;;;;;;12.32;5.35;;;18.20;1.00;;;;;;5052466;28;20583;-73
2023/09/05 03:10:52;;;;;;;10.27;5.13;;;18.20;1.00;;;;;;5040424;28;20196;-73
2023/09/05 03:13:19;;;;;;;7.60;4.72;;;18.00;9.40;;;;;;5052614;28;20184;-72
2023/09/05 03:15:44;;;;;;;8.85;5.47;;;18.20;37.60;;;;;;5046652;28;20170;-72
2023/09/05 03:18:10;;;;;;;6.90;4.88;;;18.20;1.00;;;;;;5043420;28;20181;-72
2023/09/05 03:20:36;;;;;;;7.97;5.05;;;18.10;64.80;;;;;;5051425;28;20173;-72
2023/09/05 03:23:01;;;;;;;11.82;5.55;;;17.80;99.90;;;;;;5032941;28;20189;-73
2023/09/05 03:25:27;;;;;;;9.52;6.00;;;18.00;91.40;;;;;;5032823;28;20178;-73
2023/09/05 03:27:52;;;;;;;11.13;5.55;;;18.00;99.90;;;;;;5049236;28;20285;-73
2023/09/05 03:30:18;;;;;;;9.13;5.43;;;18.00;99.90;;;;;;5039008;28;20190;-73
2023/09/05 03:32:44;;;;;;;10.00;5.10;;;18.00;99.90;;;;;;5050297;28;20185;-73
2023/09/05 03:35:10;;;;;;;9.32;5.18;;;18.00;1.00;;;;;;5048139;28;20650;-73
2023/09/05 03:37:35;;;;;;;10.43;5.65;;;17.90;1.00;;;;;;5036365;28;20223;-73
2023/09/05 03:40:01;;;;;;;8.68;5.88;;;17.90;1.00;;;;;;5043558;28;20273;-73
2023/09/05 03:42:26;;;;;;;7.70;5.03;;;17.80;1.00;;;;;;5052162;28;20697;-73
2023/09/05 03:44:52;;;;;;;9.85;5.60;;;17.80;1.00;;;;;;5050886;28;20187;-73
2023/09/05 03:47:18;;;;;;;11.52;5.85;;;17.70;1.00;;;;;;5051932;28;20216;-73
2023/09/05 03:49:43;;;;;;;10.38;5.53;;;17.70;1.00;;;;;;5052217;28;20173;-73
2023/09/05 03:52:09;;;;;;;14.07;6.45;;;17.70;1.00;;;;;;5047136;28;20170;-73
2023/09/05 03:54:35;;;;;;;10.82;6.68;;;;;;;;;;5036169;28;20272;-73
2023/09/05 03:57:01;;;;;;;9.82;6.22;;;;;;;;;;5031223;28;20166;-72
2023/09/05 03:59:26;;;;;;;9.80;6.18;;;17.60;68.80;;;;;;5046793;28;20178;-72
2023/09/05 04:01:52;;;;;;;10.05;6.18;;;17.50;99.90;;;;;;5051413;28;20616;-73
2023/09/05 04:04:18;;;;;;;9.93;6.57;;;17.40;99.90;;;;;;5051694;28;20185;-73
2023/09/05 04:06:43;;;;;;;10.02;6.10;;;17.40;99.90;;;;;;5044753;28;20656;-72
2023/09/05 04:09:09;;;;;;;10.93;5.88;;;17.30;99.90;;;;;;5036908;28;20340;-73
2023/09/05 04:11:35;;;;;;;12.52;7.57;;;;;;;;;;5047360;28;20185;-73
2023/09/05 04:14:00;;;;;;;14.15;7.30;;;17.40;99.90;;;;;;5051743;28;20177;-72
2023/09/05 04:16:26;;;;;;;9.65;6.82;;;17.40;99.90;;;;;;5051532;28;20158;-72
2023/09/05 04:18:52;;;;;;;14.77;8.13;;;17.30;99.90;;;;;;5051301;28;20267;-73
2023/09/05 04:21:17;;;;;;;14.07;7.75;;;17.40;99.90;;;;;;5051445;28;20212;-72
2023/09/05 04:23:43;;;;;;;15.20;8.75;;;17.40;99.90;;;;;;5050312;28;20648;-73
2023/09/05 04:26:08;;;;;;;14.38;7.65;;;17.00;99.90;;;;;;5051407;28;20191;-73
2023/09/05 04:28:34;;;;;;;12.10;7.38;;;17.20;99.90;;;;;;5051302;28;20209;-72
2023/09/05 04:31:04;;;;;;;12.85;8.07;;;19.20;99.90;;;;;;5049914;28;20674;-72
2023/09/05 04:33:37;;;;;;;12.25;7.05;;;17.10;99.90;;;;;;5051343;28;20193;-72
2023/09/05 04:36:06;;;;;;;14.63;8.50;;;17.10;99.90;;;;;;5051265;28;20659;-72
2023/09/05 04:38:31;;;;;;;11.98;7.18;;;17.20;99.90;;;;;;5051204;28;20177;-73
2023/09/05 04:41:01;;;;;;;16.15;9.10;;;17.10;99.90;;;;;;5050977;28;20337;-73
2023/09/05 04:43:27;;;;;;;14.32;8.50;;;;;;;;;;5050970;28;20278;-72
2023/09/05 04:45:54;;;;;;;11.43;6.97;;;17.30;99.90;;;;;;5050902;28;20248;-73
2023/09/05 04:48:20;;;;;;;10.60;6.85;;;17.10;99.90;;;;;;5050922;28;20208;-72
2023/09/05 04:50:45;;;;;;;14.90;8.38;;;17.10;99.90;;;;;;5049774;28;20535;-73
2023/09/05 04:53:11;;;;;;;11.05;7.38;;;17.10;99.90;;;;;;5050816;28;20207;-72
2023/09/05 04:55:36;;;;;;;19.15;8.80;;;16.90;99.90;;;;;;5051126;28;20169;-73
2023/09/05 04:58:02;;;;;;;14.88;8.25;;;16.80;99.90;;;;;;5050885;28;20173;-73
2023/09/05 05:00:31;;;;;;;16.42;8.82;;;;;;;;;;5051013;28;20173;-71
2023/09/05 05:02:57;;;;;;;12.20;8.00;;;17.00;99.90;;;;;;5051133;28;20520;-71
2023/09/05 05:05:23;;;;;;;11.85;7.55;;;;;;;;;;5050716;28;20227;-72
2023/09/05 05:07:49;;;;;;;11.38;6.72;;;;;;;;;;5050821;28;20287;-72
2023/09/05 05:10:15;;;;;;;14.65;8.10;;;17.10;99.90;;;;;;5049553;28;20244;-71
2023/09/05 05:12:41;;;;;;;13.68;8.77;;;;;;;;;;5050769;28;20176;-71
2023/09/05 05:15:08;;;;;;;19.05;9.85;;;17.00;99.90;;;;;;5049728;28;20177;-71
2023/09/05 05:17:34;;;;;;;18.70;10.10;;;16.70;99.90;;;;;;5039164;28;20238;-71
2023/09/05 05:20:00;;;;;;;16.92;9.65;;;;;;;;;;5047940;28;20169;-71
2023/09/05 05:22:26;;;;;;;23.83;10.68;;;16.60;99.90;;;;;;5039017;28;20173;-71
2023/09/05 05:24:52;;;;;;;17.58;10.35;;;;;;;;;;5050824;28;20279;-71
2023/09/05 05:27:17;;;;;;;16.88;10.20;;;16.70;99.90;;;;;;5045772;28;20169;-71
2023/09/05 05:29:43;;;;;;;16.17;9.73;;;;;;;;;;5051929;28;20181;-71
2023/09/05 05:32:09;;;;;;;15.02;9.18;;;16.60;99.90;;;;;;5054831;28;20193;-71
2023/09/05 05:34:35;;;;;;;14.35;8.65;;;;;;;;;;5054656;28;20200;-71
2023/09/05 05:37:01;;;;;;;15.20;9.45;;;;;;;;;;5054606;28;20165;-71
2023/09/05 05:39:27;;;;;;;17.73;9.82;;;;;;;;;;5054339;28;20161;-71
2023/09/05 05:41:53;;;;;;;18.98;11.13;;;16.60;99.90;;;;;;5042971;28;20169;-71
2023/09/05 05:44:19;;;;;;;19.42;11.40;;;;;;;;;;5019742;28;20652;-72
2023/09/05 05:46:45;;;;;;;17.83;10.32;;;16.60;99.90;;;;;;5034526;28;20180;-72
2023/09/05 05:49:11;;;;;;;16.45;8.85;;;;;;;;;;5034294;28;20213;-74
2023/09/05 05:51:37;;;;;;;17.48;8.68;;;;;;;;;;5034588;28;20170;-71
2023/09/05 05:54:03;;;;;;;17.13;10.27;;;16.70;99.90;;;;;;5034386;28;20192;-72
2023/09/05 05:56:29;;;;;;;17.13;9.32;;;16.40;99.90;;;;;;5032716;28;20712;-73
2023/09/05 05:58:54;;;;;;;16.48;9.45;;;16.80;99.90;;;;;;5034406;28;20169;-72
2023/09/05 06:01:20;;;;;;;19.10;10.90;;;16.70;99.90;;;;;;5034367;28;20186;-72
2023/09/05 06:03:46;;;;;;;19.33;11.85;;;16.70;99.90;;;;;;5034242;28;20166;-72
2023/09/05 06:06:12;;;;;;;19.77;12.07;;;16.80;99.90;;;;;;5034011;28;20211;-72
2023/09/05 06:08:39;;;;;;;19.65;10.60;;;16.80;99.90;;;;;;5034057;28;20293;-72
2023/09/05 06:11:04;;;;;;;18.33;10.82;;;16.90;99.90;;;;;;5033977;28;20261;-72
2023/09/05 06:13:30;;;;;;;19.13;10.68;;;;;;;;;;5033997;28;20256;-72
2023/09/05 06:15:56;;;;;;;20.45;11.27;;;16.80;99.90;;;;;;5034203;28;20174;-72
2023/09/05 06:18:23;;;;;;;17.65;10.88;;;17.00;99.90;;;;;;5033914;28;20178;-72
2023/09/05 06:20:48;;;;;;;19.77;11.95;;;17.20;99.90;;;;;;5033760;28;20178;-72
2023/09/05 06:23:14;;;;;;;24.40;11.77;;;;;;;;;;5033845;28;20181;-73
2023/09/05 06:25:40;;;;;;;21.33;12.40;;;;;;;;;;5033523;28;20227;-73
2023/09/05 06:28:06;;;;;;;26.00;12.07;;;17.30;99.90;;;;;;5030485;28;20240;-73
2023/09/05 06:30:32;;;;;;;20.90;12.45;;;;;;;;;;5016392;28;20645;-72
2023/09/05 06:32:58;;;;;;;18.67;11.25;;;;;;;;;;5013964;28;20649;-72
2023/09/05 06:35:24;;;;;;;20.13;11.82;;;;;;;;;;5014027;28;20181;-73
2023/09/05 06:37:56;;;;;;;19.73;12.50;;;17.30;99.90;;;;;;5013850;28;20174;-73
2023/09/05 06:40:23;;;;;;;21.80;12.30;;;;;;;;;;5022646;28;20662;-72
2023/09/05 06:42:51;;;;;;;21.58;12.18;;;17.40;99.90;;;;;;5034248;28;20228;-73
2023/09/05 06:45:17;;;;;;;26.30;13.65;;;;;;;;;;5047734;28;20173;-72
2023/09/05 06:47:42;;;;;;;24.15;12.52;;;17.40;99.90;;;;;;5052980;28;20266;-73
2023/09/05 06:50:10;;;;;;;25.35;13.48;;;;;;;;;;5053215;28;20173;-72
2023/09/05 06:52:36;;;;;;;22.63;14.05;;;;;;;;;;5053139;28;20260;-73
2023/09/05 06:55:02;;;;;;;25.48;14.15;;;;;;;;;;5051951;28;20209;-73
2023/09/05 06:57:28;;;;;;;24.80;13.98;;;17.60;99.90;;;;;;5051894;28;20260;-72
2023/09/05 06:59:54;;;;;;;24.80;14.38;;;;;;;;;;5046354;28;20699;-72
2023/09/05 07:02:20;;;;;;;24.15;14.05;;;17.50;99.90;;;;;;5033148;28;20235;-73
2023/09/05 07:04:46;;;;;;;27.17;14.07;;;;;;;;;;5033627;28;20660;-74
2023/09/05 07:07:11;;;;;;;23.73;13.88;;;17.80;99.90;;;;;;5032843;28;20192;-73
2023/09/05 07:09:37;;;;;;;23.83;14.18;;;17.90;99.90;;;;;;5032876;28;20263;-73
2023/09/05 07:12:04;;;;;;;22.27;13.75;;;18.00;99.90;;;;;;5034510;28;20170;-73
2023/09/05 07:14:30;;;;;;;27.02;13.70;;;17.80;99.90;;;;;;5034830;28;20182;-73
2023/09/05 07:16:56;;;;;;;25.65;14.43;;;;;;;;;;5032855;28;20184;-73
2023/09/05 07:19:22;;;;;;;27.20;13.20;;;;;;;;;;5032838;28;20182;-74
2023/09/05 07:21:48;;;;;;;30.95;13.45;;;18.10;99.90;;;;;;5032751;28;20173;-73
2023/09/05 07:24:15;;;;;;;26.55;14.27;;;18.40;99.90;;;;;;5031196;28;20512;-74
2023/09/05 07:26:41;;;;;;;21.10;13.43;;;18.40;99.90;;;;;;5032808;28;20170;-73
2023/09/05 07:29:10;;;;;;;23.52;13.55;;;18.20;99.90;;;;;;5031225;28;20216;-73
2023/09/05 07:31:36;;;;;;;24.40;13.70;;;;;;;;;;5032561;28;20174;-72
2023/09/05 07:34:02;;;;;;;26.52;13.57;;;18.20;99.90;;;;;;5033351;28;20189;-74
2023/09/05 07:36:28;;;;;;;27.40;14.65;;;18.50;99.90;;;;;;5040715;28;20177;-73
2023/09/05 07:38:54;;;;;;;25.15;14.07;;;18.60;99.90;;;;;;5039322;28;20256;-73
2023/09/05 07:41:20;;;;;;;30.13;14.13;;;;;;;;;;5041500;28;20269;-73
2023/09/05 07:43:46;;;;;;;27.05;13.90;;;;;;;;;;5052092;28;20251;-74
2023/09/05 07:46:13;;;;;;;26.60;14.32;;;19.00;99.90;;;;;;5051936;28;20204;-74
2023/09/05 07:48:39;;;;;;;26.73;14.23;;;18.70;99.90;;;;;;5051875;28;20209;-74
2023/09/05 07:51:07;;;;;;;21.30;12.63;;;18.90;99.90;;;;;;5050705;28;20644;-74
2023/09/05 07:53:35;;;;;;;23.00;12.60;;;18.10;99.90;;;;;;5051428;28;20177;-75
2023/09/05 07:56:02;;;;;;;24.58;14.13;;;;;;;;;;5041312;28;20190;-72
2023/09/05 07:58:28;;;;;;;27.58;14.43;;;;;;;;;;5032342;28;20648;-71
2023/09/05 08:00:54;;;;;;;31.10;13.88;;;19.70;99.90;;;;;;5043250;28;20192;-72
2023/09/05 08:03:21;;;;;;;22.73;12.25;;;19.80;99.90;;;;;;5051727;28;20235;-71
2023/09/05 08:05:48;;;;;;;27.38;13.50;;;20.00;99.90;;;;;;5051691;28;20185;-72
2023/09/05 08:08:14;;;;;;;23.33;12.93;;;20.10;99.90;;;;;;5051647;28;20217;-72
2023/09/05 08:10:40;;;;;;;25.13;12.77;;;20.90;91.00;;;;;;5051741;28;20165;-73
2023/09/05 08:13:06;;;;;;;22.98;13.07;;;21.60;99.90;;;;;;5051563;28;20180;-72
2023/09/05 08:15:32;;;;;;;26.27;13.80;;;22.70;99.90;;;;;;5051415;28;20164;-72
2023/09/05 08:17:57;;;;;;;21.75;13.43;;;23.30;99.90;;;;;;5050924;28;20181;-72
2023/09/05 08:20:24;;;;;;;21.88;12.50;;;;;;;;;;5051261;28;20178;-72
2023/09/05 08:22:49;;;;;;;22.40;13.13;;;24.50;99.90;;;;;;5051283;28;20169;-72
2023/09/05 08:25:16;;;;;;;23.90;14.27;;;;;;;;;;5034536;28;20215;-73
2023/09/05 08:27:42;;;;;;;21.67;12.88;;;;;;;;;;5051660;28;20229;-73
2023/09/05 08:30:11;;;;;;;20.77;12.32;;;25.50;99.90;;;;;;5051383;28;21028;-74
2023/09/05 08:32:40;;;;;;;33.10;13.02;;;25.60;99.90;;;;;;5051351;28;20639;-75
2023/09/05 08:35:09;;;;;;;22.15;12.82;;;25.80;99.90;;;;;;5048159;28;20619;-74
2023/09/05 08:37:35;;;;;;;25.50;12.60;;;;;;;;;;5039068;28;20703;-74
2023/09/05 08:40:01;;;;;;;20.95;12.02;;;;;;;;;;5044897;28;20196;-73
2023/09/05 08:42:32;;;;;;;19.70;11.57;;;26.40;1.00;;;;;;5046235;28;20680;-73
2023/09/05 08:45:02;;;;;;;19.77;11.50;;;26.90;1.00;;;;;;5031357;28;20257;-74
2023/09/05 08:47:29;;;;;;;18.35;11.65;;;27.00;99.90;;;;;;5031063;28;20215;-74
2023/09/05 08:49:55;;;;;;;21.02;11.80;;;;;;;;;;5031179;28;20178;-74
2023/09/05 08:52:21;;;;;;;17.13;12.00;;;;;;;;;;5031219;28;20219;-73
2023/09/05 08:54:48;;;;;;;16.80;12.00;;;26.60;43.30;;;;;;5031341;28;20215;-73
2023/09/05 08:57:17;;;;;;;21.90;11.82;;;;;;;;;;5031212;28;20231;-74
2023/09/05 08:59:43;;;;;;;19.70;11.63;;;;;;;;;;5064673;28;20853;-73
2023/09/05 09:02:14;;;;;;;20.38;11.65;;;26.30;99.90;;;;;;5049962;28;20481;-74
2023/09/05 09:04:56;;;;;;;20.23;11.77;;;26.50;17.90;;;;;;5042059;28;20642;-74
2023/09/05 09:07:29;;;;;;;16.92;11.65;;;26.30;1.00;;;;;;5060211;28;20713;-75
2023/09/05 09:09:58;;;;;;;18.00;10.80;;;25.90;11.30;;;;;;5050903;28;20173;-75
2023/09/05 09:12:31;;;;;;;21.10;11.32;;;25.90;1.00;;;;;;5036477;28;20252;-74
2023/09/05 09:15:11;;;;;;;16.55;11.02;;;25.80;1.00;;;;;;5035845;28;20208;-73
2023/09/05 09:17:45;;;;;;;19.08;11.38;;;25.80;1.00;;;;;;5047283;28;20168;-74
2023/09/05 09:20:12;;;;;;;17.17;11.13;;;;;;;;;;5050779;28;20187;-74
2023/09/05 09:22:41;;;;;;;17.42;10.27;;;27.20;99.90;;;;;;5050697;28;20181;-73
2023/09/05 09:25:20;;;;;;;15.52;9.00;;;27.00;1.00;;;;;;5043126;28;20169;-73
2023/09/05 09:27:53;;;;;;;15.80;9.85;;;27.20;1.00;;;;;;5044566;28;20197;-74
2023/09/05 09:30:24;;;;;;;13.82;9.35;;;27.10;1.00;;;;;;5045647;28;20251;-74
2023/09/05 09:32:51;;;;;;;18.67;9.82;;;27.40;99.90;;;;;;5036748;28;20166;-74
2023/09/05 09:35:17;;;;;;;15.98;9.13;;;;;;;;;;5044902;28;20185;-74
2023/09/05 09:37:46;;;;;;;13.32;8.60;;;27.80;77.50;;;;;;5043030;28;20236;-73
2023/09/05 09:40:12;;;;;;;15.75;8.75;;;28.10;1.00;;;;;;5034556;28;20200;-74
2023/09/05 09:42:38;;;;;;;14.30;8.63;;;28.60;99.90;;;;;;5048811;28;20591;-73
2023/09/05 09:45:08;;;;;;;14.10;8.82;;;28.20;99.90;;;;;;5050226;28;20226;-74
2023/09/05 09:47:34;;;;;;;11.85;7.85;;;28.70;1.00;;;;;;5050313;28;20172;-74
2023/09/05 09:50:02;;;;;;;13.57;8.40;;;28.90;99.90;;;;;;5047761;28;20269;-73
2023/09/05 09:52:34;;;;;;;15.35;8.52;;;29.20;99.90;;;;;;5050206;28;20185;-74
2023/09/05 09:55:02;;;;;;;10.70;7.95;;;29.10;99.90;;;;;;5050468;28;20235;-74
2023/09/05 09:57:40;;;;;;;10.98;7.55;;;29.40;1.00;;;;;;5039946;28;20536;-75
2023/09/05 10:00:15;;;;;;;12.02;7.13;;;29.70;1.00;;;;;;5050418;28;20172;-74
2023/09/05 10:02:43;;;;;;;10.60;6.55;;;29.80;45.20;;;;;;5050309;28;20187;-75
2023/09/05 10:05:10;;;;;;;10.60;7.35;;;29.70;99.90;;;;;;5047028;28;20169;-75
2023/09/05 10:07:37;;;;;;;13.73;8.10;;;29.40;1.00;;;;;;5038780;28;20172;-75
2023/09/05 10:10:05;;;;;;;10.60;7.18;;;29.80;1.00;;;;;;5050234;28;20173;-75
2023/09/05 10:12:31;;;;;;;11.75;6.93;;;30.10;1.00;;;;;;5037321;28;20196;-75
2023/09/05 10:15:02;;;;;;;10.57;5.72;;;30.40;1.00;;;;;;5047051;28;20655;-73
2023/09/05 10:17:30;;;;;;;9.50;6.22;;;30.80;1.00;;;;;;5049315;28;20192;-74
2023/09/05 10:19:57;;;;;;;10.05;6.78;;;30.50;1.00;;;;;;5042781;28;20266;-73
2023/09/05 10:22:24;;;;;;;8.55;6.68;;;30.70;1.00;;;;;;5054010;28;20654;-74
2023/09/05 10:24:51;;;;;;;10.45;7.45;;;30.90;1.00;;;;;;5034228;28;20169;-74
2023/09/05 10:27:17;;;;;;;10.57;7.18;;;30.70;99.90;;;;;;5033256;28;20227;-72
2023/09/05 10:29:47;;;;;;;12.45;7.45;;;31.60;1.00;;;;;;5039648;28;20702;-73
2023/09/05 10:32:19;;;;;;;11.88;6.60;;;30.70;1.00;;;;;;5049396;28;20172;-72
2023/09/05 10:34:47;;;;;;;13.77;7.50;;;30.90;99.90;;;;;;5044134;28;20220;-73
2023/09/05 10:37:26;;;;;;;16.15;6.50;;;31.00;1.00;;;;;;5048044;28;20542;-74
2023/09/05 10:39:57;;;;;;;8.35;6.25;;;31.30;1.00;;;;;;5051672;28;20173;-73
2023/09/05 10:42:32;;;;;;;9.90;6.40;;;31.70;1.00;;;;;;5044155;28;20224;-73
2023/09/05 10:45:15;;;;;;;15.73;5.63;;;31.80;1.00;;;;;;5053208;28;20250;-73
2023/09/05 10:47:41;;;;;;;13.82;6.72;;;;;;;;;;5031097;28;20662;-73
2023/09/05 10:50:09;;;;;;;9.63;5.50;;;32.30;99.90;;;;;;5033358;28;20165;-73
2023/09/05 10:52:35;;;;;;;16.08;6.00;;;31.80;99.90;;;;;;5048618;28;20173;-74
2023/09/05 10:55:29;;;;;;;11.63;6.82;;;31.80;1.00;;;;;;5053313;28;20189;-73
2023/09/05 10:57:55;;;;;;;14.30;6.65;;;;;;;;;;5033084;28;20173;-73
2023/09/05 11:00:23;;;;;;;8.50;6.35;;;31.90;22.00;;;;;;5038937;28;20226;-73
2023/09/05 11:02:49;;;;;;;11.30;6.35;;;32.00;99.90;;;;;;5044574;28;20304;-72
2023/09/05 11:05:19;;;;;;;13.20;6.43;;;32.00;99.90;;;;;;5033012;28;20192;-73
2023/09/05 11:07:45;;;;;;;10.93;6.18;;;32.00;96.00;;;;;;5037488;28;20196;-72
2023/09/05 11:10:33;;;;;;;11.93;5.80;;;32.20;99.90;;;;;;5051384;28;20310;-73
2023/09/05 11:13:10;;;;;;;13.73;6.18;;;33.00;1.00;;;;;;5033114;28;20655;-73
2023/09/05 11:15:37;;;;;;;10.30;5.15;;;32.70;1.00;;;;;;5033151;28;20180;-73
2023/09/05 11:18:05;;;;;;;8.50;5.70;;;33.10;99.90;;;;;;5032627;28;20162;-75
2023/09/05 11:20:47;;;;;;;8.40;5.35;;;32.80;99.90;;;;;;5032978;28;20256;-74
2023/09/05 11:23:21;;;;;;;10.50;5.43;;;33.10;34.90;;;;;;5032754;28;20170;-75
2023/09/05 11:25:55;;;;;;;9.55;5.72;;;33.20;23.50;;;;;;5033161;28;20205;-73
2023/09/05 11:28:23;;;;;;;8.77;6.03;;;33.00;1.00;;;;;;5031600;28;20204;-73
2023/09/05 11:30:57;;;;;;;9.10;5.22;;;33.80;58.80;;;;;;5032710;28;20201;-73
2023/09/05 11:33:27;;;;;;;8.15;5.00;;;34.00;1.00;;;;;;5032860;28;20231;-73
2023/09/05 11:35:53;;;;;;;6.95;5.57;;;33.60;1.00;;;;;;5032730;28;20188;-73
2023/09/05 11:38:20;;;;;;;9.90;4.97;;;33.40;1.00;;;;;;5032590;28;20165;-73
2023/09/05 11:40:52;;;;;;;8.07;5.30;;;33.60;1.00;;;;;;5032627;28;20251;-73
2023/09/05 11:43:18;;;;;;;8.93;5.10;;;34.40;1.00;;;;;;5043897;28;20228;-73
2023/09/05 11:45:45;;;;;;;8.98;4.93;;;34.20;1.00;;;;;;5032277;28;20185;-73
2023/09/05 11:48:16;;;;;;;6.55;4.85;;;34.20;1.00;;;;;;5043207;28;20212;-73
2023/09/05 11:50:44;;;;;;;9.68;5.10;;;33.70;1.00;;;;;;5052194;28;20636;-73
2023/09/05 11:53:13;;;;;;;12.10;4.47;;;34.80;1.00;;;;;;5052496;28;20180;-73
2023/09/05 11:55:42;;;;;;;6.03;4.60;;;34.90;99.90;;;;;;5052085;28;20250;-74
2023/09/05 11:58:09;;;;;;;5.78;5.07;;;;;;;;;;5050997;28;20172;-74
2023/09/05 12:00:42;;;;;;;8.80;4.60;;;34.90;99.90;;;;;;5039036;28;20235;-74
2023/09/05 12:03:09;;;;;;;6.75;5.13;;;;;;;;;;5031829;28;20182;-74
2023/09/05 12:05:38;;;;;;;7.53;4.95;;;34.70;1.00;;;;;;5030852;28;20196;-74
2023/09/05 12:08:07;;;;;;;7.60;4.20;;;34.80;99.90;;;;;;5031979;28;20205;-74
2023/09/05 12:10:51;;;;;;;7.20;5.18;;;34.60;99.90;;;;;;5030668;28;20209;-74
2023/09/05 12:13:34;;;;;;;7.05;4.82;;;34.60;99.90;;;;;;5031898;28;20216;-74
2023/09/05 12:16:00;;;;;;;8.23;4.80;;;;;;;;;;5030461;28;20169;-74
2023/09/05 12:18:27;;;;;;;6.80;4.72;;;35.20;99.90;;;;;;5031746;28;20170;-74
2023/09/05 12:20:57;;;;;;;9.85;4.35;;;35.20;1.00;;;;;;5031857;28;20173;-74
2023/09/05 12:23:24;;;;;;;8.27;4.45;;;35.80;99.90;;;;;;5031690;28;20640;-74
2023/09/05 12:25:52;;;;;;;10.60;5.10;;;;;;;;;;5031571;28;20169;-74
2023/09/05 12:28:20;;;;;;;5.82;4.20;;;;;;;;;;5031450;28;20200;-74
2023/09/05 12:30:49;;;;;;;7.60;4.65;;;35.80;1.00;;;;;;5038540;28;20639;-73
2023/09/05 12:33:16;;;;;;;8.35;5.07;;;;;;;;;;5051357;28;20183;-74
2023/09/05 12:35:43;;;;;;;6.20;4.47;;;35.60;99.90;;;;;;5050082;28;20275;-74
2023/09/05 12:38:10;;;;;;;8.52;4.03;;;36.30;99.90;;;;;;5031114;28;20170;-74
2023/09/05 12:40:36;;;;;;;5.80;4.15;;;36.40;1.00;;;;;;5031295;28;20185;-73
2023/09/05 12:43:03;;;;;;;8.27;4.47;;;36.00;99.90;;;;;;5031452;28;20217;-73
2023/09/05 12:45:29;;;;;;;6.95;4.60;;;35.40;99.90;;;;;;5031143;28;20192;-73
2023/09/05 12:47:54;;;;;;;7.22;4.45;;;35.10;99.90;;;;;;5031253;28;20197;-74
2023/09/05 12:50:35;;;;;;;6.95;4.28;;;35.00;1.00;;;;;;5031074;28;20165;-73
2023/09/05 12:53:01;;;;;;;10.63;4.15;;;35.60;1.00;;;;;;5036463;28;20548;-73
2023/09/05 12:55:29;;;;;;;8.02;4.45;;;34.80;99.90;;;;;;5049274;28;20177;-73
2023/09/05 12:57:55;;;;;;;10.52;4.90;;;;;;;;;;5050959;28;20157;-74
2023/09/05 13:00:21;;;;;;;4.85;3.88;;;;;;;;;;5047002;28;20224;-74
2023/09/05 13:02:47;;;;;;;8.23;4.40;;;;;;;;;;5043517;28;20661;-73
2023/09/05 13:05:13;;;;;;;9.18;5.20;;;35.10;99.90;;;;;;5031209;28;20266;-74